sensor_id;sensor_type;location;lat;lon;timestamp;temperature;humidity
26103;DHT22;69760;49.380;8.998;2024-01-30T18:25:19;9.20;99.90
26103;DHT22;69760;49.380;8.998;2024-01-30T18:27:45;9.30;99.90
26103;DHT22;69760;49.380;8.998;2024-01-30T18:30:11;9.20;99.90
26103;DHT22;69760;49.380;8.998;2024-01-30T18:32:37;9.20;99.90
26103;DHT22;69760;49.380;8.998;2024-01-30T18:35:03;9.30;99.90
26103;DHT22;69760;49.380;8.998;2024-01-30T18:37:28;9.30;99.90
26103;DHT22;69760;49.380;8.998;2024-01-30T18:39:54;9.30;99.90
26103;DHT22;69760;49.380;8.998;2024-01-30T18:42:20;9.30;99.90
26103;DHT22;69760;49.380;8.998;2024-01-30T18:44:48;9.40;99.90
26103;DHT22;69760;49.380;8.998;2024-01-30T18:47:14;9.40;99.90
26103;DHT22;69760;49.380;8.998;2024-01-30T18:49:39;9.40;99.90
26103;DHT22;69760;49.380;8.998;2024-01-30T18:52:05;9.50;99.90
26103;DHT22;69760;49.380;8.998;2024-01-30T18:54:31;9.50;99.90
26103;DHT22;69760;49.380;8.998;2024-01-30T18:56:56;9.50;99.90
26103;DHT22;69760;49.380;8.998;2024-01-30T18:59:22;9.50;99.90
26103;DHT22;69760;49.380;8.998;2024-01-30T19:01:47;9.50;99.90
26103;DHT22;69760;49.380;8.998;2024-01-30T19:04:13;9.50;99.90
26103;DHT22;69760;49.380;8.998;2024-01-30T19:06:38;9.50;99.90
26103;DHT22;69760;49.380;8.998;2024-01-30T19:09:04;9.50;99.90
26103;DHT22;69760;49.380;8.998;2024-01-30T19:11:36;9.60;99.90
26103;DHT22;69760;49.380;8.998;2024-01-30T19:14:02;9.60;99.90
26103;DHT22;69760;49.380;8.998;2024-01-30T19:16:27;9.60;99.90
26103;DHT22;69760;49.380;8.998;2024-01-30T19:18:53;9.70;99.90
26103;DHT22;69760;49.380;8.998;2024-01-30T19:21:18;9.60;99.90
26103;DHT22;69760;49.380;8.998;2024-01-30T19:23:44;9.60;99.90
26103;DHT22;69760;49.380;8.998;2024-01-30T19:26:10;9.60;99.90
26103;DHT22;69760;49.380;8.998;2024-01-30T19:28:36;9.60;99.90
26103;DHT22;69760;49.380;8.998;2024-01-30T19:31:02;9.60;99.90
26103;DHT22;69760;49.380;8.998;2024-01-30T19:33:28;9.50;99.90
26103;DHT22;69760;49.380;8.998;2024-01-30T19:35:53;9.50;99.90
26103;DHT22;69760;49.380;8.998;2024-01-30T19:38:19;9.40;99.90
26103;DHT22;69760;49.380;8.998;2024-01-30T19:40:45;9.40;99.90
26103;DHT22;69760;49.380;8.998;2024-01-30T19:43:11;9.40;99.90
26103;DHT22;69760;49.380;8.998;2024-01-30T19:45:36;9.30;99.90
26103;DHT22;69760;49.380;8.998;2024-01-30T19:48:02;9.30;99.90
26103;DHT22;69760;49.380;8.998;2024-01-30T19:50:30;9.30;99.90
26103;DHT22;69760;49.380;8.998;2024-01-30T19:52:56;9.40;99.90
26103;DHT22;69760;49.380;8.998;2024-01-30T19:55:21;9.30;99.90
26103;DHT22;69760;49.380;8.998;2024-01-30T19:57:47;9.30;99.90
26103;DHT22;69760;49.380;8.998;2024-01-30T20:00:14;9.30;99.90
26103;DHT22;69760;49.380;8.998;2024-01-30T20:02:40;9.30;99.90
26103;DHT22;69760;49.380;8.998;2024-01-30T20:05:06;9.30;99.90
26103;DHT22;69760;49.380;8.998;2024-01-30T20:07:32;9.30;99.90
26103;DHT22;69760;49.380;8.998;2024-01-30T20:09:58;9.30;99.90
26103;DHT22;69760;49.380;8.998;2024-01-30T20:12:23;9.30;99.90
26103;DHT22;69760;49.380;8.998;2024-01-30T20:14:49;9.30;99.90
26103;DHT22;69760;49.380;8.998;2024-01-30T20:17:14;9.30;99.90
26103;DHT22;69760;49.380;8.998;2024-01-30T20:19:44;9.20;99.90
26103;DHT22;69760;49.380;8.998;2024-01-30T20:22:10;9.20;99.90
26103;DHT22;69760;49.380;8.998;2024-01-30T20:24:35;9.20;99.90
26103;DHT22;69760;49.380;8.998;2024-01-30T20:27:01;9.20;99.90
26103;DHT22;69760;49.380;8.998;2024-01-30T20:29:27;9.10;99.90
26103;DHT22;69760;49.380;8.998;2024-01-30T20:31:52;9.10;99.90
26103;DHT22;69760;49.380;8.998;2024-01-30T20:34:18;9.10;99.90
26103;DHT22;69760;49.380;8.998;2024-01-30T20:36:43;9.10;99.90
26103;DHT22;69760;49.380;8.998;2024-01-30T20:39:09;9.00;99.90
26103;DHT22;69760;49.380;8.998;2024-01-30T20:41:39;9.00;99.90
26103;DHT22;69760;49.380;8.998;2024-01-30T20:44:05;9.00;99.90
26103;DHT22;69760;49.380;8.998;2024-01-30T20:46:31;9.00;99.90
26103;DHT22;69760;49.380;8.998;2024-01-30T20:48:57;9.00;99.90
26103;DHT22;69760;49.380;8.998;2024-01-30T20:51:22;9.00;99.90
26103;DHT22;69760;49.380;8.998;2024-01-30T20:53:48;8.90;99.90
26103;DHT22;69760;49.380;8.998;2024-01-30T20:56:14;8.90;99.90
26103;DHT22;69760;49.380;8.998;2024-01-30T20:58:40;9.00;99.90
26103;DHT22;69760;49.380;8.998;2024-01-30T21:01:05;8.90;99.90
26103;DHT22;69760;49.380;8.998;2024-01-30T21:03:31;9.00;99.90
26103;DHT22;69760;49.380;8.998;2024-01-30T21:05:57;9.00;99.90
26103;DHT22;69760;49.380;8.998;2024-01-30T21:08:24;9.00;99.90
